sensor_id;sensor_type;location;lat;lon;timestamp;pressure;altitude;pressure_sealevel;temperature;humidity
59240;BME280;45010;53.640;10.578;2022-10-16T00:02:36;100288.47;;;24.87;43.05
59240;BME280;45010;53.640;10.578;2022-10-16T00:05:41;100295.91;;;24.84;43.12
59240;BME280;45010;53.640;10.578;2022-10-16T00:08:42;100302.34;;;24.89;43.11
59240;BME280;45010;53.640;10.578;2022-10-16T00:11:43;100299.94;;;24.87;43.15
59240;BME280;45010;53.640;10.578;2022-10-16T00:14:43;100309.81;;;24.87;43.23
59240;BME280;45010;53.640;10.578;2022-10-16T00:17:44;100306.59;;;24.84;43.15
59240;BME280;45010;53.640;10.578;2022-10-16T00:20:44;100310.28;;;24.83;43.08
59240;BME280;45010;53.640;10.578;2022-10-16T00:23:45;100299.75;;;24.77;43.25
59240;BME280;45010;53.640;10.578;2022-10-16T00:26:49;100297.31;;;24.75;43.31
59240;BME280;45010;53.640;10.578;2022-10-16T00:29:50;100314.47;;;24.79;43.18
59240;BME280;45010;53.640;10.578;2022-10-16T00:32:51;100318.19;;;24.78;43.00
59240;BME280;45010;53.640;10.578;2022-10-16T00:35:51;100316.53;;;24.77;43.27
59240;BME280;45010;53.640;10.578;2022-10-16T00:38:53;100306.06;;;24.70;43.10
59240;BME280;45010;53.640;10.578;2022-10-16T00:41:54;100322.38;;;24.74;43.07
59240;BME280;45010;53.640;10.578;2022-10-16T00:44:56;100309.47;;;24.66;43.22
59240;BME280;45010;53.640;10.578;2022-10-16T00:47:57;100317.47;;;24.66;43.35
59240;BME280;45010;53.640;10.578;2022-10-16T00:50:58;100329.81;;;24.72;43.40
59240;BME280;45010;53.640;10.578;2022-10-16T00:53:59;100333.50;;;24.71;43.44
59240;BME280;45010;53.640;10.578;2022-10-16T00:57:02;100303.63;;;24.52;43.36
59240;BME280;45010;53.640;10.578;2022-10-16T01:00:07;100330.28;;;24.69;43.28
59240;BME280;45010;53.640;10.578;2022-10-16T01:03:28;100322.69;;;24.61;43.39
59240;BME280;45010;53.640;10.578;2022-10-16T01:06:41;100339.81;;;24.65;43.30
59240;BME280;45010;53.640;10.578;2022-10-16T01:13:02;100328.50;;;24.57;43.19
59240;BME280;45010;53.640;10.578;2022-10-16T01:16:13;100306.44;;;24.45;43.59
59240;BME280;45010;53.640;10.578;2022-10-16T01:19:25;100320.91;;;24.49;43.34
59240;BME280;45010;53.640;10.578;2022-10-16T01:22:35;100340.78;;;24.58;43.38
59240;BME280;45010;53.640;10.578;2022-10-16T01:26:15;100335.63;;;24.52;43.48
59240;BME280;45010;53.640;10.578;2022-10-16T01:29:23;100328.00;;;24.43;43.51
59240;BME280;45010;53.640;10.578;2022-10-16T01:32:30;100348.22;;;24.56;43.53
59240;BME280;45010;53.640;10.578;2022-10-16T01:35:36;100351.13;;;24.55;43.54
59240;BME280;45010;53.640;10.578;2022-10-16T01:38:39;100313.34;;;24.29;43.69
59240;BME280;45010;53.640;10.578;2022-10-16T01:41:43;100331.38;;;24.39;43.77
59240;BME280;45010;53.640;10.578;2022-10-16T01:44:47;100359.34;;;24.53;43.44
59240;BME280;45010;53.640;10.578;2022-10-16T01:47:49;100332.34;;;24.33;43.49
59240;BME280;45010;53.640;10.578;2022-10-16T01:51:12;100365.16;;;24.50;43.49
59240;BME280;45010;53.640;10.578;2022-10-16T01:54:16;100352.91;;;24.49;43.59
59240;BME280;45010;53.640;10.578;2022-10-16T01:57:21;100351.03;;;24.50;43.57
59240;BME280;45010;53.640;10.578;2022-10-16T02:00:22;100348.63;;;24.48;43.57
59240;BME280;45010;53.640;10.578;2022-10-16T02:03:23;100346.97;;;24.47;43.79
59240;BME280;45010;53.640;10.578;2022-10-16T02:06:23;100353.38;;;24.46;43.65
59240;BME280;45010;53.640;10.578;2022-10-16T02:09:25;100352.56;;;24.45;43.61
59240;BME280;45010;53.640;10.578;2022-10-16T02:12:36;100367.75;;;24.45;43.45
59240;BME280;45010;53.640;10.578;2022-10-16T02:15:39;100360.78;;;24.44;43.64
59240;BME280;45010;53.640;10.578;2022-10-16T02:18:41;100352.16;;;24.37;43.72
59240;BME280;45010;53.640;10.578;2022-10-16T02:24:56;100354.91;;;24.42;43.58
59240;BME280;45010;53.640;10.578;2022-10-16T02:28:36;100347.94;;;24.41;43.58
59240;BME280;45010;53.640;10.578;2022-10-16T02:31:41;100359.66;;;24.40;43.57
59240;BME280;45010;53.640;10.578;2022-10-16T02:34:42;100353.53;;;24.39;43.98
59240;BME280;45010;53.640;10.578;2022-10-16T02:37:44;100352.72;;;24.39;43.71
59240;BME280;45010;53.640;10.578;2022-10-16T02:40:45;100344.16;;;24.37;43.72
59240;BME280;45010;53.640;10.578;2022-10-16T02:43:46;100349.47;;;24.37;43.86
59240;BME280;45010;53.640;10.578;2022-10-16T02:46:46;100347.88;;;24.36;43.94
59240;BME280;45010;53.640;10.578;2022-10-16T02:49:46;100355.28;;;24.34;43.52
59240;BME280;45010;53.640;10.578;2022-10-16T02:52:47;100364.09;;;24.34;43.67
59240;BME280;45010;53.640;10.578;2022-10-16T02:55:47;100365.16;;;24.33;43.84
59240;BME280;45010;53.640;10.578;2022-10-16T02:58:47;100371.25;;;24.34;43.84
59240;BME280;45010;53.640;10.578;2022-10-16T03:01:48;100360.84;;;24.32;43.88
59240;BME280;45010;53.640;10.578;2022-10-16T03:04:48;100359.00;;;24.33;43.96
59240;BME280;45010;53.640;10.578;2022-10-16T03:07:48;100361.00;;;24.25;44.21
59240;BME280;45010;53.640;10.578;2022-10-16T03:10:49;100366.44;;;24.30;43.89
59240;BME280;45010;53.640;10.578;2022-10-16T03:13:50;100369.09;;;24.30;43.84
59240;BME280;45010;53.640;10.578;2022-10-16T03:16:50;100364.81;;;24.29;43.80
59240;BME280;45010;53.640;10.578;2022-10-16T03:19:51;100356.22;;;24.27;43.93
59240;BME280;45010;53.640;10.578;2022-10-16T03:22:51;100363.16;;;24.28;43.88
59240;BME280;45010;53.640;10.578;2022-10-16T03:25:52;100360.75;;;24.27;43.97
59240;BME280;45010;53.640;10.578;2022-10-16T03:28:52;100358.34;;;24.25;44.01
59240;BME280;45010;53.640;10.578;2022-10-16T03:31:53;100357.50;;;24.25;43.91
59240;BME280;45010;53.640;10.578;2022-10-16T03:34:53;100338.69;;;24.14;43.96
59240;BME280;45010;53.640;10.578;2022-10-16T03:37:54;100353.47;;;24.22;43.77
59240;BME280;45010;53.640;10.578;2022-10-16T03:40:54;100352.91;;;24.20;43.89
59240;BME280;45010;53.640;10.578;2022-10-16T03:43:54;100353.47;;;24.22;43.91
59240;BME280;45010;53.640;10.578;2022-10-16T03:46:55;100364.13;;;24.22;44.01
59240;BME280;45010;53.640;10.578;2022-10-16T03:49:55;100362.50;;;24.21;43.99
59240;BME280;45010;53.640;10.578;2022-10-16T03:52:55;100367.84;;;24.21;44.06
59240;BME280;45010;53.640;10.578;2022-10-16T03:55:56;100374.22;;;24.20;43.84
59240;BME280;45010;53.640;10.578;2022-10-16T03:58:56;100376.06;;;24.20;44.20
59240;BME280;45010;53.640;10.578;2022-10-16T04:01:56;100369.94;;;24.19;44.04
59240;BME280;45010;53.640;10.578;2022-10-16T04:04:57;100364.63;;;24.19;44.13
59240;BME280;45010;53.640;10.578;2022-10-16T04:07:57;100369.13;;;24.18;44.03
59240;BME280;45010;53.640;10.578;2022-10-16T04:10:57;100364.28;;;24.15;43.98
59240;BME280;45010;53.640;10.578;2022-10-16T04:13:58;100377.34;;;24.17;44.08
59240;BME280;45010;53.640;10.578;2022-10-16T04:16:58;100377.34;;;24.17;44.13
59240;BME280;45010;53.640;10.578;2022-10-16T04:19:58;100376.78;;;24.15;43.99
59240;BME280;45010;53.640;10.578;2022-10-16T04:22:59;100369.72;;;24.09;44.24
59240;BME280;45010;53.640;10.578;2022-10-16T04:25:59;100395.44;;;24.15;44.15
59240;BME280;45010;53.640;10.578;2022-10-16T04:29:00;100399.16;;;24.14;44.13
59240;BME280;45010;53.640;10.578;2022-10-16T04:32:00;100392.75;;;24.15;43.88
59240;BME280;45010;53.640;10.578;2022-10-16T04:35:00;100396.47;;;24.14;43.95
59240;BME280;45010;53.640;10.578;2022-10-16T04:38:01;100404.47;;;24.14;44.15
59240;BME280;45010;53.640;10.578;2022-10-16T04:41:01;100413.50;;;24.13;44.13
59240;BME280;45010;53.640;10.578;2022-10-16T04:44:01;100414.06;;;24.15;43.98
59240;BME280;45010;53.640;10.578;2022-10-16T04:47:02;100408.19;;;24.13;43.95
59240;BME280;45010;53.640;10.578;2022-10-16T04:50:02;100417.78;;;24.14;44.20
59240;BME280;45010;53.640;10.578;2022-10-16T04:53:03;100424.16;;;24.13;44.03
59240;BME280;45010;53.640;10.578;2022-10-16T04:56:03;100429.72;;;24.11;44.28
59240;BME280;45010;53.640;10.578;2022-10-16T04:59:03;100442.22;;;24.11;44.07
59240;BME280;45010;53.640;10.578;2022-10-16T05:02:04;100436.09;;;24.10;44.00
59240;BME280;45010;53.640;10.578;2022-10-16T05:05:05;100436.09;;;24.10;44.22
59240;BME280;45010;53.640;10.578;2022-10-16T05:08:05;100436.91;;;24.11;44.03
59240;BME280;45010;53.640;10.578;2022-10-16T05:11:05;100440.59;;;24.10;43.72
59240;BME280;45010;53.640;10.578;2022-10-16T05:14:06;100440.59;;;24.10;44.24
59240;BME280;45010;53.640;10.578;2022-10-16T05:17:06;100430.88;;;24.03;43.88
59240;BME280;45010;53.640;10.578;2022-10-16T05:20:07;100439.00;;;24.09;44.15
59240;BME280;45010;53.640;10.578;2022-10-16T05:23:07;100444.56;;;24.07;44.07
59240;BME280;45010;53.640;10.578;2022-10-16T05:26:10;100448.03;;;24.08;44.03
59240;BME280;45010;53.640;10.578;2022-10-16T05:29:10;100442.00;;;24.00;44.17
59240;BME280;45010;53.640;10.578;2022-10-16T05:32:10;100451.84;;;24.00;43.95
59240;BME280;45010;53.640;10.578;2022-10-16T05:35:11;100460.75;;;24.05;44.21
59240;BME280;45010;53.640;10.578;2022-10-16T05:38:11;100467.72;;;24.07;44.17
59240;BME280;45010;53.640;10.578;2022-10-16T05:41:11;100469.34;;;24.08;44.21
59240;BME280;45010;53.640;10.578;2022-10-16T05:44:12;100473.03;;;24.07;44.10
59240;BME280;45010;53.640;10.578;2022-10-16T05:47:13;100456.38;;;23.99;44.03
59240;BME280;45010;53.640;10.578;2022-10-16T05:50:14;100471.41;;;24.05;44.19
59240;BME280;45010;53.640;10.578;2022-10-16T05:53:14;100476.75;;;24.05;44.10
59240;BME280;45010;53.640;10.578;2022-10-16T05:56:15;100464.34;;;23.99;44.25
59240;BME280;45010;53.640;10.578;2022-10-16T05:59:15;100475.09;;;24.04;44.02
59240;BME280;45010;53.640;10.578;2022-10-16T06:02:16;100475.09;;;24.04;44.02
59240;BME280;45010;53.640;10.578;2022-10-16T06:05:16;100472.44;;;24.04;44.17
59240;BME280;45010;53.640;10.578;2022-10-16T06:08:17;100477.91;;;23.98;43.89
59240;BME280;45010;53.640;10.578;2022-10-16T06:11:20;100477.31;;;23.96;43.93
59240;BME280;45010;53.640;10.578;2022-10-16T06:14:20;100488.34;;;23.99;44.11
59240;BME280;45010;53.640;10.578;2022-10-16T06:17:21;100492.13;;;24.03;44.12
59240;BME280;45010;53.640;10.578;2022-10-16T06:20:21;100494.78;;;24.03;44.02
59240;BME280;45010;53.640;10.578;2022-10-16T06:23:22;100492.00;;;23.98;43.94
59240;BME280;45010;53.640;10.578;2022-10-16T06:26:25;100487.97;;;23.96;44.12
59240;BME280;45010;53.640;10.578;2022-10-16T06:29:26;100501.16;;;24.02;44.13
59240;BME280;45010;53.640;10.578;2022-10-16T06:32:27;100512.88;;;24.01;43.97
59240;BME280;45010;53.640;10.578;2022-10-16T06:35:27;100501.16;;;24.02;44.17
59240;BME280;45010;53.640;10.578;2022-10-16T06:38:29;100492.50;;;23.95;44.08
59240;BME280;45010;53.640;10.578;2022-10-16T06:41:30;100516.34;;;24.02;44.12
59240;BME280;45010;53.640;10.578;2022-10-16T06:44:31;100511.25;;;24.00;44.28
59240;BME280;45010;53.640;10.578;2022-10-16T06:47:31;100503.16;;;23.95;43.91
59240;BME280;45010;53.640;10.578;2022-10-16T06:50:31;100518.44;;;24.00;44.38
59240;BME280;45010;53.640;10.578;2022-10-16T06:53:34;100503.38;;;23.94;44.10
59240;BME280;45010;53.640;10.578;2022-10-16T06:56:35;100523.53;;;24.01;43.87
59240;BME280;45010;53.640;10.578;2022-10-16T06:59:35;100534.19;;;24.01;44.15
59240;BME280;45010;53.640;10.578;2022-10-16T07:02:35;100527.25;;;24.00;44.08
59240;BME280;45010;53.640;10.578;2022-10-16T07:05:45;100537.06;;;24.00;44.04
59240;BME280;45010;53.640;10.578;2022-10-16T07:08:46;100524.47;;;23.95;44.08
59240;BME280;45010;53.640;10.578;2022-10-16T07:11:47;100543.22;;;24.00;44.20
59240;BME280;45010;53.640;10.578;2022-10-16T07:14:47;100551.22;;;24.00;44.17
59240;BME280;45010;53.640;10.578;2022-10-16T07:17:47;100553.88;;;24.00;44.15
59240;BME280;45010;53.640;10.578;2022-10-16T07:20:48;100552.25;;;23.99;44.25
59240;BME280;45010;53.640;10.578;2022-10-16T07:23:59;100542.53;;;23.93;44.26
59240;BME280;45010;53.640;10.578;2022-10-16T07:26:59;100531.75;;;23.88;44.13
59240;BME280;45010;53.640;10.578;2022-10-16T07:30:00;100524.69;;;23.82;44.28
59240;BME280;45010;53.640;10.578;2022-10-16T07:33:00;100545.88;;;24.00;44.20
59240;BME280;45010;53.640;10.578;2022-10-16T07:36:01;100548.78;;;23.99;44.17
59240;BME280;45010;53.640;10.578;2022-10-16T07:39:01;100562.91;;;23.99;44.25
59240;BME280;45010;53.640;10.578;2022-10-16T07:42:01;100565.47;;;23.94;44.11
59240;BME280;45010;53.640;10.578;2022-10-16T07:45:02;100574.38;;;24.00;44.02
59240;BME280;45010;53.640;10.578;2022-10-16T07:48:02;100571.13;;;23.98;44.33
59240;BME280;45010;53.640;10.578;2022-10-16T07:51:05;100590.34;;;24.00;43.97
59240;BME280;45010;53.640;10.578;2022-10-16T07:54:08;100578.66;;;23.89;44.27
59240;BME280;45010;53.640;10.578;2022-10-16T07:57:08;100596.50;;;24.00;44.08
59240;BME280;45010;53.640;10.578;2022-10-16T08:00:09;100592.78;;;24.01;44.22
59240;BME280;45010;53.640;10.578;2022-10-16T08:03:13;100599.16;;;24.00;44.13
59240;BME280;45010;53.640;10.578;2022-10-16T08:06:14;100575.84;;;23.84;44.23
59240;BME280;45010;53.640;10.578;2022-10-16T08:09:15;100546.66;;;23.65;44.29
59240;BME280;45010;53.640;10.578;2022-10-16T08:12:15;100605.53;;;23.99;44.24
59240;BME280;45010;53.640;10.578;2022-10-16T08:15:16;100608.19;;;23.99;44.01
59240;BME280;45010;53.640;10.578;2022-10-16T08:18:16;100595.81;;;23.93;44.22
59240;BME280;45010;53.640;10.578;2022-10-16T08:21:21;100599.03;;;23.95;44.02
59240;BME280;45010;53.640;10.578;2022-10-16T08:24:23;100613.63;;;24.04;44.26
59240;BME280;45010;53.640;10.578;2022-10-16T08:27:23;100614.22;;;24.07;44.01
59240;BME280;45010;53.640;10.578;2022-10-16T08:30:24;100622.22;;;24.07;44.21
59240;BME280;45010;53.640;10.578;2022-10-16T08:33:24;100602.28;;;23.97;44.06
59240;BME280;45010;53.640;10.578;2022-10-16T08:36:25;100615.28;;;24.05;44.17
59240;BME280;45010;53.640;10.578;2022-10-16T08:39:25;100618.94;;;24.04;44.33
59240;BME280;45010;53.640;10.578;2022-10-16T08:42:51;100603.88;;;23.98;44.19
59240;BME280;45010;53.640;10.578;2022-10-16T08:48:59;100621.63;;;24.04;44.36
59240;BME280;45010;53.640;10.578;2022-10-16T08:52:00;100620.59;;;24.05;44.26
59240;BME280;45010;53.640;10.578;2022-10-16T08:55:01;100629.59;;;24.04;44.43
59240;BME280;45010;53.640;10.578;2022-10-16T08:58:02;100612.94;;;23.97;44.61
59240;BME280;45010;53.640;10.578;2022-10-16T09:01:04;100610.88;;;23.99;44.72
59240;BME280;45010;53.640;10.578;2022-10-16T09:10:58;100623.03;;;24.07;44.80
59240;BME280;45010;53.640;10.578;2022-10-16T09:14:15;100634.53;;;24.08;44.71
59240;BME280;45010;53.640;10.578;2022-10-16T09:17:25;100630.81;;;24.09;44.91
59240;BME280;45010;53.640;10.578;2022-10-16T09:20:52;100630.81;;;24.09;45.30
59240;BME280;45010;53.640;10.578;2022-10-16T09:24:09;100638.38;;;24.12;45.80
59240;BME280;45010;53.640;10.578;2022-10-16T09:27:13;100630.22;;;24.07;46.46
59240;BME280;45010;53.640;10.578;2022-10-16T09:30:19;100649.25;;;24.10;46.50
59240;BME280;45010;53.640;10.578;2022-10-16T09:33:23;100659.78;;;24.17;46.57
59240;BME280;45010;53.640;10.578;2022-10-16T09:36:25;100652.38;;;24.19;46.62
59240;BME280;45010;53.640;10.578;2022-10-16T09:39:27;100666.28;;;24.21;46.23
59240;BME280;45010;53.640;10.578;2022-10-16T09:42:31;100652.72;;;24.23;46.07
59240;BME280;45010;53.640;10.578;2022-10-16T09:45:32;100670.00;;;24.20;46.03
59240;BME280;45010;53.640;10.578;2022-10-16T09:48:38;100669.41;;;24.30;45.99
59240;BME280;45010;53.640;10.578;2022-10-16T09:51:39;100658.06;;;24.35;45.88
59240;BME280;45010;53.640;10.578;2022-10-16T09:55:01;100668.03;;;24.39;45.59
59240;BME280;45010;53.640;10.578;2022-10-16T09:58:02;100660.41;;;24.43;45.49
59240;BME280;45010;53.640;10.578;2022-10-16T10:01:02;100651.13;;;24.45;45.35
59240;BME280;45010;53.640;10.578;2022-10-16T10:04:03;100662.94;;;24.50;45.22
59240;BME280;45010;53.640;10.578;2022-10-16T10:07:04;100657.94;;;24.53;45.03
59240;BME280;45010;53.640;10.578;2022-10-16T10:10:05;100675.25;;;24.51;45.00
59240;BME280;45010;53.640;10.578;2022-10-16T10:13:18;100678.94;;;24.62;45.07
59240;BME280;45010;53.640;10.578;2022-10-16T10:16:23;100693.44;;;24.66;44.93
59240;BME280;45010;53.640;10.578;2022-10-16T10:19:24;100694.56;;;24.70;45.01
59240;BME280;45010;53.640;10.578;2022-10-16T10:22:39;100681.59;;;24.62;45.19
59240;BME280;45010;53.640;10.578;2022-10-16T10:26:02;100697.69;;;24.79;44.52
59240;BME280;45010;53.640;10.578;2022-10-16T10:32:41;100718.97;;;24.85;44.42
59240;BME280;45010;53.640;10.578;2022-10-16T10:36:07;100710.25;;;24.90;44.16
59240;BME280;45010;53.640;10.578;2022-10-16T10:39:50;100700.16;;;24.92;44.11
59240;BME280;45010;53.640;10.578;2022-10-16T10:43:06;100716.53;;;24.96;44.10
59240;BME280;45010;53.640;10.578;2022-10-16T10:46:19;100704.47;;;24.93;43.97
59240;BME280;45010;53.640;10.578;2022-10-16T10:59:57;100694.72;;;24.87;43.65
59240;BME280;45010;53.640;10.578;2022-10-16T11:06:20;100699.91;;;24.94;43.79
59240;BME280;45010;53.640;10.578;2022-10-16T11:09:37;100732.41;;;25.15;43.74
59240;BME280;45010;53.640;10.578;2022-10-16T11:12:42;100716.84;;;25.11;43.67
59240;BME280;45010;53.640;10.578;2022-10-16T11:15:43;100733.28;;;25.20;43.33
59240;BME280;45010;53.640;10.578;2022-10-16T11:22:24;100730.97;;;25.24;43.32
59240;BME280;45010;53.640;10.578;2022-10-16T11:25:29;100728.78;;;25.21;43.26
59240;BME280;45010;53.640;10.578;2022-10-16T11:28:45;100735.38;;;25.30;43.05
59240;BME280;45010;53.640;10.578;2022-10-16T11:31:51;100735.84;;;25.27;43.07
59240;BME280;45010;53.640;10.578;2022-10-16T11:35:00;100733.03;;;25.34;42.54
59240;BME280;45010;53.640;10.578;2022-10-16T11:38:10;100732.69;;;25.30;42.76
59240;BME280;45010;53.640;10.578;2022-10-16T11:41:22;100740.34;;;25.38;42.43
59240;BME280;45010;53.640;10.578;2022-10-16T11:44:54;100739.03;;;25.41;42.12
59240;BME280;45010;53.640;10.578;2022-10-16T11:48:01;100726.41;;;25.36;42.25
59240;BME280;45010;53.640;10.578;2022-10-16T11:51:16;100742.31;;;25.43;42.28
59240;BME280;45010;53.640;10.578;2022-10-16T11:54:24;100738.47;;;25.39;41.98
59240;BME280;45010;53.640;10.578;2022-10-16T11:57:32;100743.03;;;25.38;42.06
59240;BME280;45010;53.640;10.578;2022-10-16T12:00:44;100744.53;;;25.34;42.02
59240;BME280;45010;53.640;10.578;2022-10-16T12:04:06;100768.78;;;25.45;41.71
59240;BME280;45010;53.640;10.578;2022-10-16T12:07:15;100766.56;;;25.42;41.81
59240;BME280;45010;53.640;10.578;2022-10-16T12:10:27;100793.03;;;25.43;41.69
59240;BME280;45010;53.640;10.578;2022-10-16T12:13:38;100787.09;;;25.41;41.60
59240;BME280;45010;53.640;10.578;2022-10-16T12:16:50;100765.78;;;25.29;41.62
59240;BME280;45010;53.640;10.578;2022-10-16T12:23:20;100771.13;;;25.29;41.20
59240;BME280;45010;53.640;10.578;2022-10-16T12:26:32;100787.34;;;25.39;41.32
59240;BME280;45010;53.640;10.578;2022-10-16T12:29:38;100800.34;;;25.48;41.42
59240;BME280;45010;53.640;10.578;2022-10-16T12:32:40;100807.28;;;25.49;41.36
59240;BME280;45010;53.640;10.578;2022-10-16T12:35:43;100809.72;;;25.50;41.36
59240;BME280;45010;53.640;10.578;2022-10-16T12:41:45;100825.31;;;25.54;41.12
59240;BME280;45010;53.640;10.578;2022-10-16T12:44:46;100802.44;;;25.46;41.12
59240;BME280;45010;53.640;10.578;2022-10-16T12:47:51;100807.88;;;25.51;40.79
59240;BME280;45010;53.640;10.578;2022-10-16T12:50:53;100826.47;;;25.58;40.78
59240;BME280;45010;53.640;10.578;2022-10-16T12:54:00;100828.91;;;25.59;41.55
59240;BME280;45010;53.640;10.578;2022-10-16T12:57:30;100838.53;;;25.60;41.24
59240;BME280;45010;53.640;10.578;2022-10-16T13:00:44;100839.13;;;25.62;41.35
59240;BME280;45010;53.640;10.578;2022-10-16T13:17:14;100851.56;;;25.57;42.13
59240;BME280;45010;53.640;10.578;2022-10-16T13:23:38;100876.16;;;25.71;42.15
59240;BME280;45010;53.640;10.578;2022-10-16T13:30:17;100866.28;;;25.59;42.12
59240;BME280;45010;53.640;10.578;2022-10-16T13:36:43;100896.00;;;25.75;42.46
59240;BME280;45010;53.640;10.578;2022-10-16T13:39:44;100908.31;;;25.76;42.07
59240;BME280;45010;53.640;10.578;2022-10-16T13:42:44;100878.13;;;25.63;42.10
59240;BME280;45010;53.640;10.578;2022-10-16T13:46:03;100908.66;;;25.79;42.38
59240;BME280;45010;53.640;10.578;2022-10-16T13:49:10;100899.47;;;25.75;42.20
59240;BME280;45010;53.640;10.578;2022-10-16T13:52:18;100901.25;;;25.70;42.23
59240;BME280;45010;53.640;10.578;2022-10-16T13:55:18;100914.22;;;25.78;41.96
59240;BME280;45010;53.640;10.578;2022-10-16T13:58:18;100919.56;;;25.78;42.10
59240;BME280;45010;53.640;10.578;2022-10-16T14:01:31;100921.19;;;25.79;41.82
59240;BME280;45010;53.640;10.578;2022-10-16T14:04:38;100917.84;;;25.72;42.05
59240;BME280;45010;53.640;10.578;2022-10-16T14:07:39;100933.03;;;25.83;42.14
59240;BME280;45010;53.640;10.578;2022-10-16T14:10:40;100941.63;;;25.85;42.31
59240;BME280;45010;53.640;10.578;2022-10-16T14:13:45;100929.53;;;25.83;42.41
59240;BME280;45010;53.640;10.578;2022-10-16T14:16:46;100927.47;;;25.85;41.99
59240;BME280;45010;53.640;10.578;2022-10-16T14:19:48;100945.00;;;25.92;42.27
59240;BME280;45010;53.640;10.578;2022-10-16T14:23:01;100944.41;;;25.90;42.32
59240;BME280;45010;53.640;10.578;2022-10-16T14:29:14;100949.41;;;25.99;42.47
59240;BME280;45010;53.640;10.578;2022-10-16T14:32:23;100945.56;;;25.95;41.96
59240;BME280;45010;53.640;10.578;2022-10-16T14:35:31;100965.78;;;26.02;42.33
59240;BME280;45010;53.640;10.578;2022-10-16T14:38:32;100963.78;;;25.98;42.08
59240;BME280;45010;53.640;10.578;2022-10-16T14:41:42;100965.53;;;26.04;41.94
59240;BME280;45010;53.640;10.578;2022-10-16T14:44:44;100969.84;;;26.05;42.09
59240;BME280;45010;53.640;10.578;2022-10-16T14:47:51;100967.06;;;26.00;42.14
59240;BME280;45010;53.640;10.578;2022-10-16T14:50:52;100981.09;;;26.07;42.17
59240;BME280;45010;53.640;10.578;2022-10-16T14:53:53;100989.13;;;26.07;41.93
59240;BME280;45010;53.640;10.578;2022-10-16T14:56:55;100973.81;;;26.02;42.19
59240;BME280;45010;53.640;10.578;2022-10-16T14:59:56;100993.19;;;26.10;41.97
59240;BME280;45010;53.640;10.578;2022-10-16T15:02:57;100988.63;;;26.10;42.29
59240;BME280;45010;53.640;10.578;2022-10-16T15:05:57;100982.06;;;26.01;42.20
59240;BME280;45010;53.640;10.578;2022-10-16T15:08:58;100995.63;;;26.11;41.99
59240;BME280;45010;53.640;10.578;2022-10-16T15:11:58;100994.59;;;26.12;42.03
59240;BME280;45010;53.640;10.578;2022-10-16T15:14:59;100995.28;;;26.08;42.06
59240;BME280;45010;53.640;10.578;2022-10-16T15:18:00;100995.63;;;26.11;41.98
59240;BME280;45010;53.640;10.578;2022-10-16T15:21:01;101011.41;;;26.13;41.99
59240;BME280;45010;53.640;10.578;2022-10-16T15:24:01;101011.19;;;26.14;42.38
59240;BME280;45010;53.640;10.578;2022-10-16T15:27:02;101016.53;;;26.14;41.90
59240;BME280;45010;53.640;10.578;2022-10-16T15:30:02;101030.97;;;26.13;42.05
59240;BME280;45010;53.640;10.578;2022-10-16T15:33:03;101031.53;;;26.15;41.87
59240;BME280;45010;53.640;10.578;2022-10-16T15:36:04;101034.19;;;26.15;42.05
59240;BME280;45010;53.640;10.578;2022-10-16T15:39:15;101039.53;;;26.15;41.97
59240;BME280;45010;53.640;10.578;2022-10-16T15:42:16;101045.72;;;26.16;42.39
59240;BME280;45010;53.640;10.578;2022-10-16T15:45:16;101039.53;;;26.15;42.46
59240;BME280;45010;53.640;10.578;2022-10-16T15:48:17;101034.78;;;26.17;42.42
59240;BME280;45010;53.640;10.578;2022-10-16T15:51:18;101038.25;;;26.18;42.30
59240;BME280;45010;53.640;10.578;2022-10-16T15:54:18;101039.09;;;26.18;42.38
59240;BME280;45010;53.640;10.578;2022-10-16T15:57:21;101050.34;;;26.21;42.58
59240;BME280;45010;53.640;10.578;2022-10-16T16:00:22;101054.91;;;26.20;42.32
59240;BME280;45010;53.640;10.578;2022-10-16T16:03:25;101051.41;;;26.19;42.83
59240;BME280;45010;53.640;10.578;2022-10-16T16:06:26;101057.69;;;26.13;42.65
59240;BME280;45010;53.640;10.578;2022-10-16T16:09:29;101065.59;;;26.20;42.82
59240;BME280;45010;53.640;10.578;2022-10-16T16:12:29;101074.41;;;26.21;43.16
59240;BME280;45010;53.640;10.578;2022-10-16T16:15:30;101088.38;;;26.23;43.22
59240;BME280;45010;53.640;10.578;2022-10-16T16:18:30;101090.03;;;26.24;43.69
59240;BME280;45010;53.640;10.578;2022-10-16T16:21:30;101083.03;;;26.23;43.89
59240;BME280;45010;53.640;10.578;2022-10-16T16:24:30;101095.81;;;26.21;43.62
59240;BME280;45010;53.640;10.578;2022-10-16T16:27:31;101094.19;;;26.19;43.94
59240;BME280;45010;53.640;10.578;2022-10-16T16:30:33;101097.91;;;26.18;44.08
59240;BME280;45010;53.640;10.578;2022-10-16T16:33:34;101105.31;;;26.16;44.24
59240;BME280;45010;53.640;10.578;2022-10-16T16:36:35;101112.78;;;26.14;44.38
59240;BME280;45010;53.640;10.578;2022-10-16T16:39:36;101109.53;;;26.12;44.19
59240;BME280;45010;53.640;10.578;2022-10-16T16:42:36;101114.28;;;26.10;43.85
59240;BME280;45010;53.640;10.578;2022-10-16T16:45:36;101128.13;;;26.07;44.45
59240;BME280;45010;53.640;10.578;2022-10-16T16:48:37;101138.22;;;26.05;44.17
59240;BME280;45010;53.640;10.578;2022-10-16T16:51:38;101139.25;;;26.04;44.10
59240;BME280;45010;53.640;10.578;2022-10-16T16:54:39;101140.53;;;26.01;44.51
59240;BME280;45010;53.640;10.578;2022-10-16T16:57:39;101147.19;;;25.99;44.43
59240;BME280;45010;53.640;10.578;2022-10-16T17:00:46;101147.63;;;25.96;44.42